createdAt,value
2022-09-02T03:39:47.548Z,0.373
2022-09-02T03:44:47.627Z,0.747
2022-09-02T03:49:47.742Z,2.241
2022-09-02T03:54:47.867Z,5.602
2022-09-02T03:59:47.937Z,13.446
2022-09-02T04:04:48.038Z,31
2022-09-02T04:09:48.176Z,69.844
2022-09-02T04:14:48.263Z,139.689
2022-09-02T04:19:48.420Z,248.004
2022-09-02T04:24:48.494Z,397.404
2022-09-02T04:29:48.598Z,591.624
2022-09-02T04:34:49.838Z,830.664
2022-09-02T04:39:48.799Z,1105.56
2022-09-02T04:44:48.900Z,1416.312
2022-09-02T04:49:49.039Z,1721.088
2022-09-02T04:54:49.107Z,2055.744
2022-09-02T04:59:49.228Z,2306.736
2022-09-02T05:04:49.357Z,2880.432
2022-09-02T05:09:49.865Z,3322.656
2022-09-02T05:14:49.541Z,3729.024
2022-09-02T05:19:49.671Z,4135.392
2022-09-02T05:24:49.758Z,4541.76
2022-09-02T05:29:49.851Z,5043.744
2022-09-02T05:34:49.942Z,5665.248
2022-09-02T05:39:50.086Z,5952.096
2022-09-02T05:44:50.141Z,7123.392
2022-09-02T05:49:50.299Z,7840.512
2022-09-02T05:56:06.586Z,9131.328
2022-09-02T06:01:06.665Z,9896.256
2022-09-02T06:06:06.981Z,10613.376
2022-09-02T06:11:06.906Z,11378.304
2022-09-02T06:16:07.137Z,12430.08
2022-09-02T06:21:07.130Z,13195.008
2022-09-02T06:26:07.200Z,14151.168
2022-09-02T06:31:07.406Z,15011.712
2022-09-02T06:36:07.478Z,16159.104
2022-09-02T06:41:07.546Z,17115.264
2022-09-02T06:46:07.693Z,18358.272
2022-09-02T06:51:07.793Z,19410.048
2022-09-02T06:56:07.874Z,20653.056
2022-09-02T07:02:15.325Z,21896.064
2022-09-02T07:04:48.317Z,22374.144
2022-09-02T07:07:31.615Z,23139.072
2022-09-02T07:10:04.813Z,23808.384
2022-09-02T07:12:48.115Z,24477.696
2022-09-02T07:15:21.341Z,25051.392
2022-09-02T07:17:54.496Z,25625.088
2022-09-02T07:20:27.671Z,26007.552
2022-09-02T07:23:26.307Z,26963.712
2022-09-02T07:26:09.652Z,27346.176
2022-09-02T07:28:42.708Z,27919.872
2022-09-02T07:31:41.358Z,28684.8
2022-09-02T07:34:14.480Z,29067.264
2022-09-02T07:37:43.668Z,30023.424
2022-09-02T07:41:28.178Z,30788.352
2022-09-02T07:44:11.582Z,31553.28
2022-09-02T07:46:44.650Z,31935.744
2022-09-02T07:49:20.911Z,32509.44
2022-09-02T07:52:06.256Z,33274.368
2022-09-02T07:55:25.312Z,34039.296
2022-09-02T07:58:16.097Z,34612.992
2022-09-02T08:01:02.250Z,35186.688
2022-09-02T08:04:11.093Z,35951.616
2022-09-02T08:06:54.495Z,36525.312
2022-09-02T08:09:32.714Z,37290.24
2022-09-02T08:12:05.910Z,37481.472
2022-09-02T08:14:44.154Z,38055.168
2022-09-02T08:18:23.539Z,38820.096
2022-09-02T08:21:01.862Z,39393.792
2022-09-02T08:23:45.363Z,39967.488
2022-09-02T08:26:48.973Z,40541.184
2022-09-02T08:29:42.573Z,41114.88
2022-09-02T08:32:30.982Z,41688.576
2022-09-02T08:35:09.208Z,42262.272
2022-09-02T08:38:18.083Z,42835.968
2022-09-02T08:40:56.342Z,43218.432
2022-09-02T08:43:34.558Z,43792.128
2022-09-02T08:46:43.376Z,44557.056
2022-09-02T08:50:02.540Z,44748.288
2022-09-02T08:53:52.278Z,45704.448
2022-09-02T08:56:35.693Z,46278.144
2022-09-02T08:59:34.387Z,46851.84
2022-09-02T09:02:07.522Z,47808
2022-09-02T09:05:11.260Z,48572.928
2022-09-02T09:07:49.499Z,48381.696
2022-09-02T09:10:48.162Z,49720.32
2022-09-02T09:13:26.445Z,7362.432
2022-09-02T09:16:04.450Z,10039.68
2022-09-02T09:18:37.569Z,15394.176
2022-09-02T09:23:58.621Z,54692.352
2022-09-02T09:26:52.185Z,54692.352
2022-09-02T09:29:40.656Z,55457.28
2022-09-02T09:32:17.861Z,54692.352
2022-09-02T09:34:51.049Z,55457.28
2022-09-02T09:37:24.241Z,57752.064
2022-09-02T09:39:56.122Z,34039.296
2022-09-02T09:42:58.215Z,54309.888
2022-09-02T09:47:23.893Z,58134.528
2022-09-02T09:50:03.071Z,60046.848
2022-09-02T09:52:41.304Z,60429.312
2022-09-02T09:55:24.583Z,15394.176
2022-09-02T09:57:59.272Z,65018.88
2022-09-02T10:01:11.880Z,63106.56
2022-09-02T10:03:48.855Z,25242.624
2022-09-02T10:06:57.917Z,13386.24
2022-09-02T10:09:36.179Z,16254.72
2022-09-02T10:12:09.242Z,19888.128
2022-09-02T10:14:50.082Z,68078.592
2022-09-02T10:17:28.281Z,64636.416
2022-09-02T10:20:04.501Z,63489.024
2022-09-02T10:22:51.442Z,66548.736
2022-09-02T10:25:12.838Z,69225.984
2022-09-02T10:27:48.961Z,50102.784
2022-09-02T10:30:22.270Z,20270.592
2022-09-02T10:32:54.002Z,72285.696
2022-09-02T10:35:27.942Z,29449.728
2022-09-02T10:38:01.761Z,26581.248
2022-09-02T10:41:06.873Z,23043.456
2022-09-02T10:43:56.866Z,24477.696
2022-09-02T10:46:35.925Z,78787.584
2022-09-02T10:49:09.031Z,67313.664
2022-09-02T10:51:45.953Z,77640.192
2022-09-02T10:54:20.224Z,46469.376
2022-09-02T10:56:50.625Z,77257.728
2022-09-02T10:59:25.385Z,81847.296
2022-09-02T11:02:06.385Z,79552.512
2022-09-02T11:04:47.695Z,77640.192
2022-09-02T11:07:21.627Z,80699.904
2022-09-02T11:09:54.289Z,43409.664
2022-09-02T11:12:27.527Z,80699.904
2022-09-02T11:14:57.872Z,41688.576
2022-09-02T11:17:32.263Z,23043.456
2022-09-02T11:20:05.384Z,22278.528
2022-09-02T11:22:58.990Z,21035.52
2022-09-02T11:26:02.689Z,21704.832
2022-09-02T11:28:35.763Z,23808.384
2022-09-02T11:31:24.199Z,29258.496
2022-09-02T11:33:57.576Z,40158.72
2022-09-02T11:36:29.403Z,40349.952
2022-09-02T11:39:01.081Z,41306.112
2022-09-02T11:41:37.322Z,34039.296
2022-09-02T11:44:07.407Z,82612.224
2022-09-02T11:46:48.150Z,31744.512
2022-09-02T11:49:27.184Z,53544.96
2022-09-02T11:52:28.164Z,30597.12
2022-09-02T11:55:16.624Z,30979.584
2022-09-02T11:57:46.754Z,49720.32
2022-09-02T12:00:26.607Z,24860.16
2022-09-02T12:03:11.819Z,21896.064
2022-09-02T12:05:37.930Z,22756.608
2022-09-02T12:08:18.817Z,27154.944
2022-09-02T12:10:51.143Z,50102.784
2022-09-02T12:13:26.045Z,32891.904
2022-09-02T12:16:17.081Z,68461.056
2022-09-02T12:18:49.769Z,38437.632
2022-09-02T12:21:29.991Z,32126.976
2022-09-02T12:24:03.514Z,44174.592
2022-09-02T12:26:36.255Z,34804.224
2022-09-02T12:29:07.272Z,38055.168
2022-09-02T12:31:57.339Z,66166.272
2022-09-02T12:34:33.397Z,80699.904
2022-09-02T12:37:09.060Z,40541.184
2022-09-02T12:39:40.178Z,35377.92
2022-09-02T12:42:38.881Z,24668.928
2022-09-02T12:45:32.390Z,24477.696
2022-09-02T12:48:10.660Z,25816.32
2022-09-02T12:50:48.908Z,28684.8
2022-09-02T12:53:29.751Z,37672.704
2022-09-02T12:56:12.685Z,35951.616
2022-09-02T12:58:42.908Z,30979.584
2022-09-02T13:01:24.250Z,30405.888
2022-09-02T13:03:57.258Z,31744.512
2022-09-02T13:06:31.864Z,75345.408
2022-09-02T13:12:38.562Z,34804.224
2022-09-02T13:15:34.911Z,22756.608
2022-09-02T13:18:23.289Z,19505.664
2022-09-02T13:21:16.804Z,19792.512
2022-09-02T13:23:49.975Z,23043.456
2022-09-02T13:26:45.822Z,30597.12
2022-09-02T13:28:56.618Z,37099.008
2022-09-02T13:31:37.382Z,19218.816
2022-09-02T13:34:26.099Z,19601.28
2022-09-02T13:36:58.950Z,21896.064
2022-09-02T13:39:31.128Z,30788.352
2022-09-02T13:42:02.194Z,66548.736
2022-09-02T13:44:35.949Z,25625.088
2022-09-02T13:48:56.094Z,20557.44
2022-09-02T13:51:33.166Z,20366.208
2022-09-02T13:57:00.860Z,18262.656
2022-09-02T13:59:43.411Z,17019.648
2022-09-02T14:03:02.578Z,17593.344
2022-09-02T14:06:04.132Z,50102.784
2022-09-02T14:08:45.465Z,57369.6
2022-09-02T14:11:23.680Z,56604.672
2022-09-02T14:13:57.961Z,21896.064
2022-09-02T14:16:31.009Z,17688.96
2022-09-02T14:19:14.424Z,16637.184
2022-09-02T14:21:47.594Z,17497.728
2022-09-02T14:24:30.944Z,18167.04
2022-09-02T14:27:09.222Z,19123.2
2022-09-02T14:30:12.951Z,19696.896
2022-09-02T14:32:54.951Z,43600.896
2022-09-02T14:35:32.735Z,19218.816
2022-09-02T14:38:31.369Z,17593.344
2022-09-02T14:42:00.579Z,16637.184
2022-09-02T14:44:33.767Z,16541.568
2022-09-02T14:47:17.012Z,16828.416
2022-09-02T14:49:50.183Z,23521.536
2022-09-02T14:52:24.058Z,18262.656
2022-09-02T14:55:01.891Z,21896.064
2022-09-02T14:58:02.507Z,16445.952
2022-09-02T15:00:40.742Z,15585.408
2022-09-02T15:04:45.730Z,14151.168
2022-09-02T15:07:28.981Z,13864.32
2022-09-02T15:10:32.696Z,12430.08
2022-09-02T15:13:05.722Z,12143.232
2022-09-02T15:15:43.971Z,11330.496
2022-09-02T15:18:57.894Z,12716.928
2022-09-02T15:21:41.187Z,13003.776
2022-09-02T15:25:00.222Z,13195.008
2022-09-02T15:27:48.606Z,12716.928
2022-09-02T15:31:17.953Z,12334.464
2022-09-02T15:34:11.450Z,13195.008
2022-09-02T15:36:59.897Z,12621.312
2022-09-02T15:40:24.008Z,12812.544
2022-09-02T15:42:57.059Z,12143.232
2022-09-02T15:45:30.198Z,11856.384
2022-09-02T15:48:03.329Z,10565.568
2022-09-02T15:50:46.757Z,8557.632
2022-09-02T15:53:35.021Z,7840.512
2022-09-02T15:56:28.497Z,7458.048
2022-09-02T15:59:01.636Z,7171.2
2022-09-02T16:02:00.272Z,6454.08
2022-09-02T16:04:38.407Z,5999.904
2022-09-02T16:07:47.133Z,5976
2022-09-02T16:10:55.937Z,6071.616
2022-09-02T16:15:26.331Z,6167.232
2022-09-02T16:18:14.727Z,6454.08
2022-09-02T16:21:13.383Z,7123.392
2022-09-02T16:24:01.821Z,7601.472
2022-09-02T16:27:30.897Z,7840.512
2022-09-02T16:30:34.682Z,7697.088
2022-09-02T16:33:12.862Z,7792.704
2022-09-02T16:35:46.025Z,7505.856
2022-09-02T16:38:19.108Z,6836.544
2022-09-02T16:41:07.569Z,6215.04
2022-09-02T16:45:38.162Z,5856.48
2022-09-02T16:48:25.614Z,5402.304
2022-09-02T16:50:54.540Z,4637.376
2022-09-02T16:53:27.756Z,4350.528
2022-09-02T16:56:05.943Z,4015.872
2022-09-02T16:58:59.465Z,4326.624
2022-09-02T17:01:37.681Z,4756.896
2022-09-02T17:05:32.385Z,4900.32
2022-09-02T17:08:10.634Z,4732.992
2022-09-02T17:10:48.885Z,3896.352
2022-09-02T17:13:27.000Z,2653.344
2022-09-02T17:16:15.361Z,2163.312
2022-09-02T17:19:19.112Z,1995.984
2022-09-02T17:23:08.650Z,1768.896
2022-09-02T17:25:46.983Z,1625.472
2022-09-02T17:31:13.396Z,1356.552
2022-09-02T17:34:06.838Z,1231.056
2022-09-02T17:41:29.572Z,860.544
2022-09-02T17:46:29.760Z,618.516
2022-09-02T17:51:29.829Z,424.296
2022-09-02T17:56:29.986Z,256.968
2022-09-02T18:01:30.130Z,137.448
2022-09-02T18:06:30.131Z,70.218
2022-09-02T18:11:30.208Z,31
2022-09-02T18:16:30.410Z,12.325
2022-09-02T18:21:30.457Z,5.229
2022-09-02T18:26:30.565Z,2.241
2022-09-02T18:33:16.876Z,0.373
2022-09-02T18:43:17.150Z,0
